sensor_id;sensor_type;location;lat;lon;timestamp;P1;durP1;ratioP1;P2;durP2;ratioP2
67717;SDS011;54511;47.532;19.180;2022-09-01T00:02:04;3.33;;;1.73;;
67717;SDS011;54511;47.532;19.180;2022-09-01T00:04:53;3.17;;;2.03;;
67717;SDS011;54511;47.532;19.180;2022-09-01T00:07:26;3.37;;;1.80;;
67717;SDS011;54511;47.532;19.180;2022-09-01T00:10:15;4.35;;;1.92;;
67717;SDS011;54511;47.532;19.180;2022-09-01T00:13:19;4.15;;;1.83;;
67717;SDS011;54511;47.532;19.180;2022-09-01T00:15:51;7.03;;;2.20;;
67717;SDS011;54511;47.532;19.180;2022-09-01T00:18:18;4.07;;;2.00;;
67717;SDS011;54511;47.532;19.180;2022-09-01T00:20:53;5.28;;;1.98;;
67717;SDS011;54511;47.532;19.180;2022-09-01T00:24:20;3.45;;;1.87;;
67717;SDS011;54511;47.532;19.180;2022-09-01T00:27:07;6.03;;;2.12;;
67717;SDS011;54511;47.532;19.180;2022-09-01T00:29:34;5.85;;;2.50;;
67717;SDS011;54511;47.532;19.180;2022-09-01T00:32:02;5.05;;;2.40;;
67717;SDS011;54511;47.532;19.180;2022-09-01T00:34:30;5.62;;;2.47;;
67717;SDS011;54511;47.532;19.180;2022-09-01T00:36:59;6.95;;;2.30;;
67717;SDS011;54511;47.532;19.180;2022-09-01T00:39:26;5.32;;;2.50;;
67717;SDS011;54511;47.532;19.180;2022-09-01T00:41:56;5.72;;;2.67;;
67717;SDS011;54511;47.532;19.180;2022-09-01T00:44:24;6.10;;;2.60;;
67717;SDS011;54511;47.532;19.180;2022-09-01T00:46:52;5.07;;;2.55;;
67717;SDS011;54511;47.532;19.180;2022-09-01T00:49:22;10.10;;;2.80;;
67717;SDS011;54511;47.532;19.180;2022-09-01T00:51:53;6.35;;;2.80;;
67717;SDS011;54511;47.532;19.180;2022-09-01T00:54:25;5.40;;;2.60;;
67717;SDS011;54511;47.532;19.180;2022-09-01T00:56:54;4.35;;;2.47;;
67717;SDS011;54511;47.532;19.180;2022-09-01T00:59:21;5.20;;;2.50;;
67717;SDS011;54511;47.532;19.180;2022-09-01T01:01:50;5.85;;;2.45;;
67717;SDS011;54511;47.532;19.180;2022-09-01T01:04:18;5.47;;;2.50;;
67717;SDS011;54511;47.532;19.180;2022-09-01T01:06:45;4.82;;;2.40;;
67717;SDS011;54511;47.532;19.180;2022-09-01T01:09:24;4.93;;;2.20;;
67717;SDS011;54511;47.532;19.180;2022-09-01T01:11:52;4.78;;;2.30;;
67717;SDS011;54511;47.532;19.180;2022-09-01T01:14:24;7.70;;;2.67;;
67717;SDS011;54511;47.532;19.180;2022-09-01T01:16:56;4.15;;;2.17;;
67717;SDS011;54511;47.532;19.180;2022-09-01T01:19:26;6.18;;;2.53;;
67717;SDS011;54511;47.532;19.180;2022-09-01T01:22:19;3.50;;;2.22;;
67717;SDS011;54511;47.532;19.180;2022-09-01T01:25:06;4.32;;;2.20;;
67717;SDS011;54511;47.532;19.180;2022-09-01T01:27:37;3.05;;;1.70;;
67717;SDS011;54511;47.532;19.180;2022-09-01T01:30:07;14.98;;;2.30;;
67717;SDS011;54511;47.532;19.180;2022-09-01T01:32:35;3.58;;;2.08;;
67717;SDS011;54511;47.532;19.180;2022-09-01T01:35:06;3.65;;;2.03;;
67717;SDS011;54511;47.532;19.180;2022-09-01T01:37:39;7.22;;;1.90;;
67717;SDS011;54511;47.532;19.180;2022-09-01T01:40:15;4.78;;;1.92;;
67717;SDS011;54511;47.532;19.180;2022-09-01T01:42:48;3.83;;;2.00;;
67717;SDS011;54511;47.532;19.180;2022-09-01T01:45:17;4.40;;;2.00;;
67717;SDS011;54511;47.532;19.180;2022-09-01T01:47:49;3.12;;;1.77;;
67717;SDS011;54511;47.532;19.180;2022-09-01T01:50:19;7.93;;;2.47;;
67717;SDS011;54511;47.532;19.180;2022-09-01T01:52:49;4.82;;;1.92;;
67717;SDS011;54511;47.532;19.180;2022-09-01T01:55:18;6.45;;;2.08;;
67717;SDS011;54511;47.532;19.180;2022-09-01T01:57:46;4.85;;;1.80;;
67717;SDS011;54511;47.532;19.180;2022-09-01T02:00:15;3.75;;;2.00;;
67717;SDS011;54511;47.532;19.180;2022-09-01T02:02:44;3.80;;;2.05;;
67717;SDS011;54511;47.532;19.180;2022-09-01T02:05:16;2.65;;;2.00;;
67717;SDS011;54511;47.532;19.180;2022-09-01T02:07:47;3.42;;;2.00;;
67717;SDS011;54511;47.532;19.180;2022-09-01T02:10:18;4.55;;;1.90;;
67717;SDS011;54511;47.532;19.180;2022-09-01T02:12:45;3.53;;;2.10;;
67717;SDS011;54511;47.532;19.180;2022-09-01T02:15:13;3.67;;;2.20;;
67717;SDS011;54511;47.532;19.180;2022-09-01T02:17:41;5.93;;;2.30;;
67717;SDS011;54511;47.532;19.180;2022-09-01T02:20:11;3.90;;;2.35;;
67717;SDS011;54511;47.532;19.180;2022-09-01T02:22:41;3.55;;;2.55;;
67717;SDS011;54511;47.532;19.180;2022-09-01T02:25:10;2.97;;;2.00;;
67717;SDS011;54511;47.532;19.180;2022-09-01T02:27:42;7.45;;;2.20;;
67717;SDS011;54511;47.532;19.180;2022-09-01T02:30:11;4.40;;;2.07;;
67717;SDS011;54511;47.532;19.180;2022-09-01T02:32:40;3.37;;;1.95;;
67717;SDS011;54511;47.532;19.180;2022-09-01T02:35:08;3.55;;;2.17;;
67717;SDS011;54511;47.532;19.180;2022-09-01T02:37:36;5.10;;;2.22;;
67717;SDS011;54511;47.532;19.180;2022-09-01T02:40:06;2.80;;;1.98;;
67717;SDS011;54511;47.532;19.180;2022-09-01T02:42:36;3.67;;;2.13;;
67717;SDS011;54511;47.532;19.180;2022-09-01T02:45:08;5.20;;;2.20;;
67717;SDS011;54511;47.532;19.180;2022-09-01T02:47:41;6.53;;;2.35;;
67717;SDS011;54511;47.532;19.180;2022-09-01T02:50:12;3.70;;;1.98;;
67717;SDS011;54511;47.532;19.180;2022-09-01T02:52:41;4.22;;;2.05;;
67717;SDS011;54511;47.532;19.180;2022-09-01T02:55:09;4.22;;;1.70;;
67717;SDS011;54511;47.532;19.180;2022-09-01T02:57:38;8.07;;;2.00;;
67717;SDS011;54511;47.532;19.180;2022-09-01T03:00:07;3.15;;;2.00;;
67717;SDS011;54511;47.532;19.180;2022-09-01T03:02:59;4.05;;;1.95;;
67717;SDS011;54511;47.532;19.180;2022-09-01T03:05:37;5.57;;;1.90;;
67717;SDS011;54511;47.532;19.180;2022-09-01T03:08:05;3.08;;;1.90;;
67717;SDS011;54511;47.532;19.180;2022-09-01T03:10:40;3.35;;;1.92;;
67717;SDS011;54511;47.532;19.180;2022-09-01T03:13:10;3.33;;;1.92;;
67717;SDS011;54511;47.532;19.180;2022-09-01T03:15:40;4.05;;;1.83;;
67717;SDS011;54511;47.532;19.180;2022-09-01T03:18:08;3.42;;;1.83;;
67717;SDS011;54511;47.532;19.180;2022-09-01T03:20:37;3.65;;;1.73;;
67717;SDS011;54511;47.532;19.180;2022-09-01T03:23:08;5.18;;;1.60;;
67717;SDS011;54511;47.532;19.180;2022-09-01T03:28:05;3.30;;;1.90;;
67717;SDS011;54511;47.532;19.180;2022-09-01T03:30:36;5.85;;;2.03;;
67717;SDS011;54511;47.532;19.180;2022-09-01T03:33:06;4.40;;;1.70;;
67717;SDS011;54511;47.532;19.180;2022-09-01T03:35:33;4.97;;;2.12;;
67717;SDS011;54511;47.532;19.180;2022-09-01T03:38:01;4.62;;;1.60;;
67717;SDS011;54511;47.532;19.180;2022-09-01T03:40:29;3.60;;;1.92;;
67717;SDS011;54511;47.532;19.180;2022-09-01T03:43:01;4.22;;;2.00;;
67717;SDS011;54511;47.532;19.180;2022-09-01T03:45:29;5.80;;;1.90;;
67717;SDS011;54511;47.532;19.180;2022-09-01T03:47:59;8.40;;;1.75;;
67717;SDS011;54511;47.532;19.180;2022-09-01T03:50:29;3.58;;;1.92;;
67717;SDS011;54511;47.532;19.180;2022-09-01T03:52:57;2.65;;;1.70;;
67717;SDS011;54511;47.532;19.180;2022-09-01T03:55:26;4.80;;;1.85;;
67717;SDS011;54511;47.532;19.180;2022-09-01T03:57:55;4.47;;;1.83;;
67717;SDS011;54511;47.532;19.180;2022-09-01T04:00:25;3.22;;;1.80;;
67717;SDS011;54511;47.532;19.180;2022-09-01T04:02:54;5.05;;;1.75;;
67717;SDS011;54511;47.532;19.180;2022-09-01T04:05:24;4.18;;;2.10;;
67717;SDS011;54511;47.532;19.180;2022-09-01T04:07:55;3.72;;;1.90;;
67717;SDS011;54511;47.532;19.180;2022-09-01T04:10:23;3.92;;;2.00;;
67717;SDS011;54511;47.532;19.180;2022-09-01T04:12:51;3.78;;;1.92;;
67717;SDS011;54511;47.532;19.180;2022-09-01T04:15:23;5.37;;;1.90;;
67717;SDS011;54511;47.532;19.180;2022-09-01T04:17:51;5.40;;;2.30;;
67717;SDS011;54511;47.532;19.180;2022-09-01T04:20:33;4.35;;;1.83;;
67717;SDS011;54511;47.532;19.180;2022-09-01T04:23:14;4.62;;;2.17;;
67717;SDS011;54511;47.532;19.180;2022-09-01T04:25:45;3.70;;;1.80;;
67717;SDS011;54511;47.532;19.180;2022-09-01T04:28:16;4.78;;;1.80;;
67717;SDS011;54511;47.532;19.180;2022-09-01T04:30:50;3.92;;;1.87;;
67717;SDS011;54511;47.532;19.180;2022-09-01T04:33:21;5.87;;;2.15;;
67717;SDS011;54511;47.532;19.180;2022-09-01T04:35:50;4.10;;;1.87;;
67717;SDS011;54511;47.532;19.180;2022-09-01T04:38:20;8.75;;;2.58;;
67717;SDS011;54511;47.532;19.180;2022-09-01T04:40:49;4.53;;;2.08;;
67717;SDS011;54511;47.532;19.180;2022-09-01T04:43:24;3.92;;;2.20;;
67717;SDS011;54511;47.532;19.180;2022-09-01T04:45:51;7.15;;;2.20;;
67717;SDS011;54511;47.532;19.180;2022-09-01T04:48:18;5.95;;;1.95;;
67717;SDS011;54511;47.532;19.180;2022-09-01T04:50:50;3.75;;;2.20;;
67717;SDS011;54511;47.532;19.180;2022-09-01T04:53:38;5.10;;;2.10;;
67717;SDS011;54511;47.532;19.180;2022-09-01T04:56:07;5.37;;;2.45;;
67717;SDS011;54511;47.532;19.180;2022-09-01T04:58:35;4.55;;;2.40;;
67717;SDS011;54511;47.532;19.180;2022-09-01T05:01:12;7.20;;;2.50;;
67717;SDS011;54511;47.532;19.180;2022-09-01T05:03:39;4.03;;;2.40;;
67717;SDS011;54511;47.532;19.180;2022-09-01T05:06:11;5.37;;;2.55;;
67717;SDS011;54511;47.532;19.180;2022-09-01T05:08:40;5.28;;;2.42;;
67717;SDS011;54511;47.532;19.180;2022-09-01T05:11:07;5.22;;;2.30;;
67717;SDS011;54511;47.532;19.180;2022-09-01T05:13:35;7.28;;;2.53;;
67717;SDS011;54511;47.532;19.180;2022-09-01T05:16:04;7.68;;;3.85;;
67717;SDS011;54511;47.532;19.180;2022-09-01T05:18:57;3.85;;;2.30;;
67717;SDS011;54511;47.532;19.180;2022-09-01T05:21:39;4.82;;;2.75;;
67717;SDS011;54511;47.532;19.180;2022-09-01T05:24:13;3.85;;;2.35;;
67717;SDS011;54511;47.532;19.180;2022-09-01T05:26:42;4.55;;;2.45;;
67717;SDS011;54511;47.532;19.180;2022-09-01T05:29:11;3.80;;;2.40;;
67717;SDS011;54511;47.532;19.180;2022-09-01T05:31:40;4.57;;;2.40;;
67717;SDS011;54511;47.532;19.180;2022-09-01T05:34:10;5.62;;;2.47;;
67717;SDS011;54511;47.532;19.180;2022-09-01T05:36:40;3.45;;;2.40;;
67717;SDS011;54511;47.532;19.180;2022-09-01T05:39:16;7.75;;;3.00;;
67717;SDS011;54511;47.532;19.180;2022-09-01T05:41:43;4.35;;;2.53;;
67717;SDS011;54511;47.532;19.180;2022-09-01T05:44:12;5.68;;;2.25;;
67717;SDS011;54511;47.532;19.180;2022-09-01T05:46:41;5.57;;;2.37;;
67717;SDS011;54511;47.532;19.180;2022-09-01T05:49:10;7.37;;;2.62;;
67717;SDS011;54511;47.532;19.180;2022-09-01T05:51:40;5.12;;;2.30;;
67717;SDS011;54511;47.532;19.180;2022-09-01T05:54:08;8.90;;;2.42;;
67717;SDS011;54511;47.532;19.180;2022-09-01T05:56:37;5.18;;;1.90;;
67717;SDS011;54511;47.532;19.180;2022-09-01T05:59:05;5.60;;;2.10;;
67717;SDS011;54511;47.532;19.180;2022-09-01T06:01:32;5.50;;;2.33;;
67717;SDS011;54511;47.532;19.180;2022-09-01T06:04:05;3.87;;;2.10;;
67717;SDS011;54511;47.532;19.180;2022-09-01T06:06:34;6.03;;;2.78;;
67717;SDS011;54511;47.532;19.180;2022-09-01T06:09:04;5.30;;;2.20;;
67717;SDS011;54511;47.532;19.180;2022-09-01T06:11:31;6.15;;;2.20;;
67717;SDS011;54511;47.532;19.180;2022-09-01T06:14:00;8.60;;;2.28;;
67717;SDS011;54511;47.532;19.180;2022-09-01T06:16:28;5.20;;;2.20;;
67717;SDS011;54511;47.532;19.180;2022-09-01T06:18:55;4.53;;;2.17;;
67717;SDS011;54511;47.532;19.180;2022-09-01T06:21:23;3.25;;;1.90;;
67717;SDS011;54511;47.532;19.180;2022-09-01T06:23:53;4.68;;;2.15;;
67717;SDS011;54511;47.532;19.180;2022-09-01T06:26:23;4.40;;;2.20;;
67717;SDS011;54511;47.532;19.180;2022-09-01T06:29:12;4.20;;;2.58;;
67717;SDS011;54511;47.532;19.180;2022-09-01T06:31:40;6.10;;;1.80;;
67717;SDS011;54511;47.532;19.180;2022-09-01T06:34:08;5.28;;;2.47;;
67717;SDS011;54511;47.532;19.180;2022-09-01T06:36:38;5.90;;;2.20;;
67717;SDS011;54511;47.532;19.180;2022-09-01T06:39:07;7.95;;;2.50;;
67717;SDS011;54511;47.532;19.180;2022-09-01T06:41:43;5.28;;;2.20;;
67717;SDS011;54511;47.532;19.180;2022-09-01T06:44:13;5.28;;;2.28;;
67717;SDS011;54511;47.532;19.180;2022-09-01T06:46:46;3.53;;;2.10;;
67717;SDS011;54511;47.532;19.180;2022-09-01T06:49:13;4.90;;;2.28;;
67717;SDS011;54511;47.532;19.180;2022-09-01T06:51:40;5.95;;;2.40;;
67717;SDS011;54511;47.532;19.180;2022-09-01T06:54:07;6.97;;;2.08;;
67717;SDS011;54511;47.532;19.180;2022-09-01T06:56:38;4.60;;;2.30;;
67717;SDS011;54511;47.532;19.180;2022-09-01T06:59:05;5.75;;;2.50;;
67717;SDS011;54511;47.532;19.180;2022-09-01T07:01:33;6.50;;;2.20;;
67717;SDS011;54511;47.532;19.180;2022-09-01T07:04:01;5.93;;;2.50;;
67717;SDS011;54511;47.532;19.180;2022-09-01T07:06:28;5.00;;;2.22;;
67717;SDS011;54511;47.532;19.180;2022-09-01T07:08:56;5.35;;;2.40;;
67717;SDS011;54511;47.532;19.180;2022-09-01T07:11:26;3.47;;;2.20;;
67717;SDS011;54511;47.532;19.180;2022-09-01T07:13:55;6.68;;;2.50;;
67717;SDS011;54511;47.532;19.180;2022-09-01T07:16:27;5.30;;;2.60;;
67717;SDS011;54511;47.532;19.180;2022-09-01T07:18:56;5.07;;;2.50;;
67717;SDS011;54511;47.532;19.180;2022-09-01T07:21:25;4.93;;;2.35;;
67717;SDS011;54511;47.532;19.180;2022-09-01T07:23:53;3.67;;;2.03;;
67717;SDS011;54511;47.532;19.180;2022-09-01T07:26:22;4.82;;;2.30;;
67717;SDS011;54511;47.532;19.180;2022-09-01T07:28:50;7.45;;;2.60;;
67717;SDS011;54511;47.532;19.180;2022-09-01T07:31:17;6.87;;;2.95;;
67717;SDS011;54511;47.532;19.180;2022-09-01T07:33:49;4.65;;;2.00;;
67717;SDS011;54511;47.532;19.180;2022-09-01T07:36:18;4.93;;;2.40;;
67717;SDS011;54511;47.532;19.180;2022-09-01T07:38:46;4.30;;;2.20;;
67717;SDS011;54511;47.532;19.180;2022-09-01T07:41:18;3.87;;;2.12;;
67717;SDS011;54511;47.532;19.180;2022-09-01T07:43:45;4.47;;;2.10;;
67717;SDS011;54511;47.532;19.180;2022-09-01T07:48:43;3.70;;;2.17;;
67717;SDS011;54511;47.532;19.180;2022-09-01T07:51:13;4.12;;;2.10;;
67717;SDS011;54511;47.532;19.180;2022-09-01T07:53:44;4.25;;;2.10;;
67717;SDS011;54511;47.532;19.180;2022-09-01T07:56:13;4.47;;;2.17;;
67717;SDS011;54511;47.532;19.180;2022-09-01T07:58:41;4.78;;;1.95;;
67717;SDS011;54511;47.532;19.180;2022-09-01T08:01:08;2.47;;;1.80;;
67717;SDS011;54511;47.532;19.180;2022-09-01T08:03:36;3.55;;;1.98;;
67717;SDS011;54511;47.532;19.180;2022-09-01T08:06:04;3.28;;;2.20;;
67717;SDS011;54511;47.532;19.180;2022-09-01T08:08:32;3.20;;;2.00;;
67717;SDS011;54511;47.532;19.180;2022-09-01T08:11:01;5.07;;;2.15;;
67717;SDS011;54511;47.532;19.180;2022-09-01T08:13:28;4.32;;;2.12;;
67717;SDS011;54511;47.532;19.180;2022-09-01T08:15:55;2.30;;;1.62;;
67717;SDS011;54511;47.532;19.180;2022-09-01T08:18:22;4.53;;;1.90;;
67717;SDS011;54511;47.532;19.180;2022-09-01T08:20:49;4.53;;;2.25;;
67717;SDS011;54511;47.532;19.180;2022-09-01T08:23:17;5.35;;;1.92;;
67717;SDS011;54511;47.532;19.180;2022-09-01T08:25:45;4.80;;;2.10;;
67717;SDS011;54511;47.532;19.180;2022-09-01T08:28:14;3.17;;;1.92;;
67717;SDS011;54511;47.532;19.180;2022-09-01T08:30:41;3.40;;;1.77;;
67717;SDS011;54511;47.532;19.180;2022-09-01T08:33:09;4.68;;;2.08;;
67717;SDS011;54511;47.532;19.180;2022-09-01T08:35:38;3.28;;;2.00;;
67717;SDS011;54511;47.532;19.180;2022-09-01T08:38:11;5.62;;;1.90;;
67717;SDS011;54511;47.532;19.180;2022-09-01T08:40:39;3.47;;;1.85;;
67717;SDS011;54511;47.532;19.180;2022-09-01T08:43:15;3.83;;;2.10;;
67717;SDS011;54511;47.532;19.180;2022-09-01T08:45:51;4.65;;;2.25;;
67717;SDS011;54511;47.532;19.180;2022-09-01T08:48:21;4.25;;;1.80;;
67717;SDS011;54511;47.532;19.180;2022-09-01T08:50:52;3.35;;;2.15;;
67717;SDS011;54511;47.532;19.180;2022-09-01T08:53:24;3.73;;;2.10;;
67717;SDS011;54511;47.532;19.180;2022-09-01T08:58:25;6.07;;;2.10;;
67717;SDS011;54511;47.532;19.180;2022-09-01T09:00:55;4.78;;;1.90;;
67717;SDS011;54511;47.532;19.180;2022-09-01T09:03:30;4.10;;;1.80;;
67717;SDS011;54511;47.532;19.180;2022-09-01T09:06:08;3.15;;;1.98;;
67717;SDS011;54511;47.532;19.180;2022-09-01T09:11:39;2.33;;;1.63;;
67717;SDS011;54511;47.532;19.180;2022-09-01T09:14:36;4.50;;;2.00;;
67717;SDS011;54511;47.532;19.180;2022-09-01T09:17:12;3.45;;;1.90;;
67717;SDS011;54511;47.532;19.180;2022-09-01T09:19:40;4.75;;;1.98;;
67717;SDS011;54511;47.532;19.180;2022-09-01T09:22:15;3.10;;;1.80;;
67717;SDS011;54511;47.532;19.180;2022-09-01T09:24:47;3.00;;;1.80;;
67717;SDS011;54511;47.532;19.180;2022-09-01T09:27:21;3.53;;;1.60;;
67717;SDS011;54511;47.532;19.180;2022-09-01T09:29:55;8.65;;;2.00;;
67717;SDS011;54511;47.532;19.180;2022-09-01T09:32:24;2.87;;;1.80;;
67717;SDS011;54511;47.532;19.180;2022-09-01T09:35:16;3.12;;;1.60;;
67717;SDS011;54511;47.532;19.180;2022-09-01T09:37:49;3.00;;;1.80;;
67717;SDS011;54511;47.532;19.180;2022-09-01T09:40:18;3.33;;;2.00;;
67717;SDS011;54511;47.532;19.180;2022-09-01T09:45:35;3.33;;;1.95;;
67717;SDS011;54511;47.532;19.180;2022-09-01T09:48:06;3.97;;;1.70;;
67717;SDS011;54511;47.532;19.180;2022-09-01T09:50:35;3.72;;;2.10;;
67717;SDS011;54511;47.532;19.180;2022-09-01T09:53:14;5.72;;;2.03;;
67717;SDS011;54511;47.532;19.180;2022-09-01T09:55:53;3.67;;;1.90;;
67717;SDS011;54511;47.532;19.180;2022-09-01T09:58:43;3.95;;;1.83;;
67717;SDS011;54511;47.532;19.180;2022-09-01T10:01:14;3.47;;;1.80;;
67717;SDS011;54511;47.532;19.180;2022-09-01T10:03:55;3.08;;;1.70;;
67717;SDS011;54511;47.532;19.180;2022-09-01T10:06:30;3.33;;;1.65;;
67717;SDS011;54511;47.532;19.180;2022-09-01T10:08:59;3.20;;;2.05;;
67717;SDS011;54511;47.532;19.180;2022-09-01T10:11:30;4.45;;;2.08;;
67717;SDS011;54511;47.532;19.180;2022-09-01T10:14:04;4.53;;;1.65;;
67717;SDS011;54511;47.532;19.180;2022-09-01T10:19:03;3.72;;;1.73;;
67717;SDS011;54511;47.532;19.180;2022-09-01T10:22:10;1.80;;;1.20;;
67717;SDS011;54511;47.532;19.180;2022-09-01T10:24:57;5.05;;;2.05;;
67717;SDS011;54511;47.532;19.180;2022-09-01T10:27:26;2.17;;;1.20;;
67717;SDS011;54511;47.532;19.180;2022-09-01T10:30:00;2.10;;;1.40;;
67717;SDS011;54511;47.532;19.180;2022-09-01T10:32:37;1.50;;;1.23;;
67717;SDS011;54511;47.532;19.180;2022-09-01T10:35:09;2.87;;;1.30;;
67717;SDS011;54511;47.532;19.180;2022-09-01T10:40:09;2.40;;;1.45;;
67717;SDS011;54511;47.532;19.180;2022-09-01T10:42:41;2.15;;;1.10;;
67717;SDS011;54511;47.532;19.180;2022-09-01T10:45:17;1.48;;;1.10;;
67717;SDS011;54511;47.532;19.180;2022-09-01T10:47:48;2.08;;;1.20;;
67717;SDS011;54511;47.532;19.180;2022-09-01T10:50:22;1.70;;;1.20;;
67717;SDS011;54511;47.532;19.180;2022-09-01T10:52:53;3.83;;;1.20;;
67717;SDS011;54511;47.532;19.180;2022-09-01T10:55:25;1.80;;;1.30;;
67717;SDS011;54511;47.532;19.180;2022-09-01T10:57:59;2.42;;;1.30;;
67717;SDS011;54511;47.532;19.180;2022-09-01T11:06:34;1.42;;;1.05;;
67717;SDS011;54511;47.532;19.180;2022-09-01T11:09:16;2.00;;;0.80;;
67717;SDS011;54511;47.532;19.180;2022-09-01T11:11:48;3.72;;;1.00;;
67717;SDS011;54511;47.532;19.180;2022-09-01T11:14:22;1.55;;;1.00;;
67717;SDS011;54511;47.532;19.180;2022-09-01T11:19:41;2.92;;;1.00;;
67717;SDS011;54511;47.532;19.180;2022-09-01T11:22:13;1.70;;;1.20;;
67717;SDS011;54511;47.532;19.180;2022-09-01T11:24:50;5.22;;;1.00;;
67717;SDS011;54511;47.532;19.180;2022-09-01T11:30:22;3.22;;;0.98;;
67717;SDS011;54511;47.532;19.180;2022-09-01T11:32:50;1.33;;;0.82;;
67717;SDS011;54511;47.532;19.180;2022-09-01T11:35:26;3.75;;;1.10;;
67717;SDS011;54511;47.532;19.180;2022-09-01T11:37:55;1.62;;;0.85;;
67717;SDS011;54511;47.532;19.180;2022-09-01T11:40:24;3.90;;;0.90;;
67717;SDS011;54511;47.532;19.180;2022-09-01T11:42:53;2.58;;;0.88;;
67717;SDS011;54511;47.532;19.180;2022-09-01T11:45:22;3.20;;;0.95;;
67717;SDS011;54511;47.532;19.180;2022-09-01T11:47:53;1.05;;;0.88;;
67717;SDS011;54511;47.532;19.180;2022-09-01T11:50:22;2.33;;;1.20;;
67717;SDS011;54511;47.532;19.180;2022-09-01T11:52:53;2.37;;;1.00;;
67717;SDS011;54511;47.532;19.180;2022-09-01T11:55:27;1.52;;;0.90;;
67717;SDS011;54511;47.532;19.180;2022-09-01T11:57:55;1.58;;;1.00;;
67717;SDS011;54511;47.532;19.180;2022-09-01T12:00:24;2.53;;;0.90;;
67717;SDS011;54511;47.532;19.180;2022-09-01T12:02:52;1.35;;;0.82;;
67717;SDS011;54511;47.532;19.180;2022-09-01T12:05:24;2.70;;;1.17;;
67717;SDS011;54511;47.532;19.180;2022-09-01T12:07:55;1.83;;;1.02;;
67717;SDS011;54511;47.532;19.180;2022-09-01T12:10:23;1.98;;;0.95;;
67717;SDS011;54511;47.532;19.180;2022-09-01T12:12:59;2.58;;;1.10;;
67717;SDS011;54511;47.532;19.180;2022-09-01T12:15:28;2.70;;;0.82;;
67717;SDS011;54511;47.532;19.180;2022-09-01T12:18:09;2.15;;;1.00;;
67717;SDS011;54511;47.532;19.180;2022-09-01T12:20:40;3.80;;;0.98;;
67717;SDS011;54511;47.532;19.180;2022-09-01T12:23:16;3.17;;;1.05;;
67717;SDS011;54511;47.532;19.180;2022-09-01T12:25:44;2.33;;;1.00;;
67717;SDS011;54511;47.532;19.180;2022-09-01T12:28:12;2.00;;;0.80;;
67717;SDS011;54511;47.532;19.180;2022-09-01T12:30:40;1.67;;;0.80;;
67717;SDS011;54511;47.532;19.180;2022-09-01T12:33:09;4.12;;;0.90;;
67717;SDS011;54511;47.532;19.180;2022-09-01T12:35:40;1.42;;;0.85;;
67717;SDS011;54511;47.532;19.180;2022-09-01T12:38:20;3.90;;;0.90;;
67717;SDS011;54511;47.532;19.180;2022-09-01T12:40:49;1.35;;;0.77;;
67717;SDS011;54511;47.532;19.180;2022-09-01T12:43:26;6.32;;;1.08;;
67717;SDS011;54511;47.532;19.180;2022-09-01T12:45:53;2.95;;;0.90;;
67717;SDS011;54511;47.532;19.180;2022-09-01T12:48:25;2.03;;;0.80;;
67717;SDS011;54511;47.532;19.180;2022-09-01T12:50:59;2.87;;;1.30;;
67717;SDS011;54511;47.532;19.180;2022-09-01T12:53:28;2.40;;;0.93;;
67717;SDS011;54511;47.532;19.180;2022-09-01T12:55:59;2.28;;;0.82;;
67717;SDS011;54511;47.532;19.180;2022-09-01T12:58:42;1.02;;;0.85;;
67717;SDS011;54511;47.532;19.180;2022-09-01T13:04:05;2.50;;;0.90;;
67717;SDS011;54511;47.532;19.180;2022-09-01T13:06:34;1.05;;;0.80;;
67717;SDS011;54511;47.532;19.180;2022-09-01T13:09:01;1.20;;;0.90;;
67717;SDS011;54511;47.532;19.180;2022-09-01T13:11:30;1.23;;;0.90;;
67717;SDS011;54511;47.532;19.180;2022-09-01T13:13:57;1.83;;;0.90;;
67717;SDS011;54511;47.532;19.180;2022-09-01T13:16:25;3.10;;;0.98;;
67717;SDS011;54511;47.532;19.180;2022-09-01T13:18:52;1.95;;;0.75;;
67717;SDS011;54511;47.532;19.180;2022-09-01T13:21:18;2.42;;;0.90;;
67717;SDS011;54511;47.532;19.180;2022-09-01T13:23:47;1.62;;;1.12;;
67717;SDS011;54511;47.532;19.180;2022-09-01T13:26:14;2.83;;;0.70;;
67717;SDS011;54511;47.532;19.180;2022-09-01T13:28:41;2.40;;;0.80;;
67717;SDS011;54511;47.532;19.180;2022-09-01T13:31:09;0.88;;;0.70;;
67717;SDS011;54511;47.532;19.180;2022-09-01T13:33:36;0.95;;;0.82;;
67717;SDS011;54511;47.532;19.180;2022-09-01T13:36:03;3.58;;;0.90;;
67717;SDS011;54511;47.532;19.180;2022-09-01T13:38:31;2.03;;;0.90;;
67717;SDS011;54511;47.532;19.180;2022-09-01T13:40:59;1.50;;;0.75;;
67717;SDS011;54511;47.532;19.180;2022-09-01T13:43:27;1.30;;;0.80;;
67717;SDS011;54511;47.532;19.180;2022-09-01T13:45:55;2.28;;;1.10;;
67717;SDS011;54511;47.532;19.180;2022-09-01T13:48:22;2.45;;;0.85;;
67717;SDS011;54511;47.532;19.180;2022-09-01T13:50:49;2.40;;;0.80;;
67717;SDS011;54511;47.532;19.180;2022-09-01T13:53:17;3.28;;;1.00;;
67717;SDS011;54511;47.532;19.180;2022-09-01T13:55:45;2.67;;;0.80;;
67717;SDS011;54511;47.532;19.180;2022-09-01T13:58:13;4.10;;;0.93;;
67717;SDS011;54511;47.532;19.180;2022-09-01T14:00:42;0.95;;;0.75;;
67717;SDS011;54511;47.532;19.180;2022-09-01T14:03:12;7.18;;;1.20;;
67717;SDS011;54511;47.532;19.180;2022-09-01T14:05:42;2.03;;;0.88;;
67717;SDS011;54511;47.532;19.180;2022-09-01T14:08:10;1.15;;;0.82;;
67717;SDS011;54511;47.532;19.180;2022-09-01T14:10:39;1.83;;;0.80;;
67717;SDS011;54511;47.532;19.180;2022-09-01T14:13:10;1.23;;;0.80;;
67717;SDS011;54511;47.532;19.180;2022-09-01T14:15:39;2.25;;;0.90;;
67717;SDS011;54511;47.532;19.180;2022-09-01T14:18:06;3.25;;;0.90;;
67717;SDS011;54511;47.532;19.180;2022-09-01T14:20:35;1.15;;;0.90;;
67717;SDS011;54511;47.532;19.180;2022-09-01T14:23:05;1.30;;;0.80;;
67717;SDS011;54511;47.532;19.180;2022-09-01T14:25:33;3.03;;;1.00;;
67717;SDS011;54511;47.532;19.180;2022-09-01T14:28:02;4.90;;;1.00;;
67717;SDS011;54511;47.532;19.180;2022-09-01T14:30:30;3.37;;;0.85;;
67717;SDS011;54511;47.532;19.180;2022-09-01T14:32:59;0.73;;;0.65;;
67717;SDS011;54511;47.532;19.180;2022-09-01T14:35:27;1.83;;;0.90;;
67717;SDS011;54511;47.532;19.180;2022-09-01T14:37:57;3.07;;;0.80;;
67717;SDS011;54511;47.532;19.180;2022-09-01T14:40:25;1.40;;;0.77;;
67717;SDS011;54511;47.532;19.180;2022-09-01T14:42:53;1.87;;;0.90;;
67717;SDS011;54511;47.532;19.180;2022-09-01T14:45:20;1.73;;;0.75;;
67717;SDS011;54511;47.532;19.180;2022-09-01T14:47:49;1.15;;;0.70;;
67717;SDS011;54511;47.532;19.180;2022-09-01T14:50:19;3.60;;;0.90;;
67717;SDS011;54511;47.532;19.180;2022-09-01T14:52:46;5.75;;;0.90;;
67717;SDS011;54511;47.532;19.180;2022-09-01T14:55:13;2.80;;;0.70;;
67717;SDS011;54511;47.532;19.180;2022-09-01T14:57:41;0.90;;;0.73;;
67717;SDS011;54511;47.532;19.180;2022-09-01T15:00:08;1.12;;;0.75;;
67717;SDS011;54511;47.532;19.180;2022-09-01T15:02:37;3.12;;;0.80;;
67717;SDS011;54511;47.532;19.180;2022-09-01T15:05:05;2.03;;;0.77;;
67717;SDS011;54511;47.532;19.180;2022-09-01T15:07:35;1.05;;;0.70;;
67717;SDS011;54511;47.532;19.180;2022-09-01T15:10:02;0.68;;;0.60;;
67717;SDS011;54511;47.532;19.180;2022-09-01T15:12:30;1.15;;;0.70;;
67717;SDS011;54511;47.532;19.180;2022-09-01T15:14:57;1.35;;;0.90;;
67717;SDS011;54511;47.532;19.180;2022-09-01T15:17:24;0.90;;;0.68;;
67717;SDS011;54511;47.532;19.180;2022-09-01T15:19:51;2.83;;;0.80;;
67717;SDS011;54511;47.532;19.180;2022-09-01T15:22:18;1.37;;;0.85;;
67717;SDS011;54511;47.532;19.180;2022-09-01T15:24:47;0.95;;;0.70;;
67717;SDS011;54511;47.532;19.180;2022-09-01T15:27:14;1.90;;;0.90;;
67717;SDS011;54511;47.532;19.180;2022-09-01T15:29:41;1.05;;;0.73;;